Time;durP1;ratioP1;P1;durP2;ratioP2;P2;SDS_P1;SDS_P2;PMS_P1;PMS_P2;Temp;Humidity;BMP_temperature;BMP_pressure;BME280_temperature;BME280_humidity;BME280_pressure;Samples;Min_cycle;Max_cycle;Signal;HPM_P1;HPM_P2
2021/07/06 00:02:27;;;;;;;3.47;3.22;;;15.50;99.90;;;16.25;93.66;97450.13;5181496;28;20219;-62
2021/07/06 00:05:01;;;;;;;3.80;3.53;;;15.50;99.90;;;16.24;94.13;97453.56;5181037;28;20285;-62
2021/07/06 00:07:36;;;;;;;3.30;3.10;;;15.50;99.90;;;16.28;94.59;97452.81;5176231;28;20250;-61
2021/07/06 00:10:12;;;;;;;3.38;2.92;;;15.60;99.90;;;16.25;94.09;97451.84;5179935;28;20198;-61
2021/07/06 00:12:45;;;;;;;3.55;3.33;;;15.50;99.90;;;16.29;93.90;97445.97;5180602;28;20306;-62
2021/07/06 00:15:23;;;;;;;3.33;3.08;;;15.50;99.90;;;16.28;93.99;97447.66;5182269;28;20203;-61
2021/07/06 00:17:56;;;;;;;3.58;3.28;;;15.50;99.90;;;16.29;93.92;97451.97;5176855;28;20195;-61
2021/07/06 00:20:30;;;;;;;3.08;2.88;;;15.50;99.90;;;16.33;93.88;97452.94;5176166;28;20202;-60
2021/07/06 00:23:05;;;;;;;4.00;3.38;;;15.60;99.90;;;16.34;93.91;97453.00;5184435;28;20691;-61
2021/07/06 00:25:38;;;;;;;3.38;2.88;;;15.60;99.90;;;16.29;93.81;97451.97;5185568;28;20194;-59
2021/07/06 00:28:11;;;;;;;3.47;3.17;;;15.50;99.90;;;16.26;93.62;97451.03;5182843;28;20213;-58
2021/07/06 00:30:44;;;;;;;3.30;3.00;;;15.50;99.90;;;16.23;93.59;97444.06;5180472;28;20214;-60
2021/07/06 00:33:18;;;;;;;3.42;3.20;;;15.40;99.90;;;16.26;93.44;97440.72;5180347;28;20225;-61
2021/07/06 00:35:51;;;;;;;3.42;3.13;;;15.50;99.90;;;16.20;93.57;97437.13;5181161;28;20195;-61
2021/07/06 00:38:26;;;;;;;3.63;3.33;;;15.40;99.90;;;16.20;93.99;97429.38;5181300;28;20195;-58
2021/07/06 00:41:01;;;;;;;3.85;3.55;;;15.50;99.90;;;16.21;94.48;97420.81;5182504;28;20647;-59
2021/07/06 00:43:36;;;;;;;3.55;3.25;;;15.50;99.90;;;16.14;93.67;97416.31;5178302;28;20222;-58
2021/07/06 00:46:09;;;;;;;3.55;3.30;;;15.40;99.90;;;16.14;93.16;97416.31;5179766;28;20317;-61
2021/07/06 00:48:42;;;;;;;3.45;3.25;;;15.40;99.90;;;16.10;93.82;97414.47;5183267;28;20237;-61
2021/07/06 00:51:15;;;;;;;3.85;3.55;;;15.30;99.90;;;16.05;93.66;97417.75;5179049;28;20191;-63
2021/07/06 00:53:51;;;;;;;3.72;3.42;;;15.30;99.90;;;16.03;93.25;97416.84;5183291;28;20738;-59
2021/07/06 00:56:24;;;;;;;4.13;3.72;;;15.30;99.90;;;15.97;93.12;97402.09;5184522;28;20205;-61
2021/07/06 00:58:58;;;;;;;3.60;3.25;;;15.20;99.90;;;15.93;93.32;97397.66;5177546;28;20199;-61
2021/07/06 01:01:31;;;;;;;3.58;3.28;;;15.20;99.90;;;15.92;93.55;97388.19;5176628;28;20667;-60
2021/07/06 01:04:05;;;;;;;3.45;3.25;;;15.20;99.90;;;15.93;93.36;97393.38;5176796;28;20202;-61
2021/07/06 01:06:39;;;;;;;4.20;3.80;;;15.10;99.90;;;15.91;93.21;97392.47;5180229;28;20383;-61
2021/07/06 01:09:13;;;;;;;4.20;3.83;;;15.10;99.90;;;15.82;93.86;97386.16;5176225;28;20199;-61
2021/07/06 01:11:47;;;;;;;3.92;3.63;;;15.10;99.90;;;15.85;93.78;97386.25;5181467;28;20210;-61
2021/07/06 01:14:22;;;;;;;3.97;3.70;;;15.10;99.90;;;15.86;93.82;97381.16;5182303;28;20281;-62
2021/07/06 01:16:55;;;;;;;3.90;3.50;;;15.10;99.90;;;15.91;93.97;97383.84;5177560;28;20201;-61
2021/07/06 01:19:28;;;;;;;3.85;3.58;;;15.20;99.90;;;15.87;93.71;97379.44;5175487;28;20199;-62
2021/07/06 01:22:04;;;;;;;3.50;3.30;;;15.10;99.90;;;15.83;93.61;97375.91;5182994;28;20218;-61
2021/07/06 01:24:39;;;;;;;3.63;3.42;;;15.10;99.90;;;15.84;93.51;97371.63;5180934;28;20198;-61
2021/07/06 01:27:12;;;;;;;4.72;3.60;;;15.10;99.90;;;15.87;93.90;97371.72;5179500;28;20225;-59
2021/07/06 01:29:45;;;;;;;3.42;3.22;;;15.10;99.90;;;15.81;93.68;97368.97;5182752;28;20194;-56
2021/07/06 01:32:18;;;;;;;3.53;3.28;;;15.10;99.90;;;15.86;93.67;97354.50;5179167;28;20215;-61
2021/07/06 01:34:52;;;;;;;3.42;3.15;;;15.10;99.90;;;15.88;93.98;97355.41;5175390;28;20571;-62
2021/07/06 01:37:26;;;;;;;3.38;3.17;;;15.10;99.90;;;15.81;93.95;97353.50;5180840;28;20195;-59
2021/07/06 01:39:59;;;;;;;3.85;3.55;;;15.00;99.90;;;15.81;93.95;97353.50;5184233;28;20199;-59
2021/07/06 01:42:32;;;;;;;3.60;3.40;;;15.10;99.90;;;15.81;94.23;97354.38;5176016;28;20234;-57
2021/07/06 01:45:09;;;;;;;3.58;3.28;;;15.10;99.90;;;15.83;94.29;97346.69;5174612;28;20197;-62
2021/07/06 01:47:45;;;;;;;3.85;3.60;;;15.10;99.90;;;15.75;93.66;97346.47;5187279;28;20329;-62
2021/07/06 01:50:22;;;;;;;5.10;3.70;;;15.00;99.90;;;15.76;93.66;97346.50;5183922;28;20214;-61
2021/07/06 01:52:59;;;;;;;3.80;3.40;;;15.00;99.90;;;15.75;93.96;97347.34;5180478;28;20217;-61
2021/07/06 01:55:36;;;;;;;3.75;3.50;;;15.00;99.90;;;15.74;93.88;97335.31;5167434;28;20205;-59
2021/07/06 01:58:12;;;;;;;3.83;3.53;;;15.00;99.90;;;15.76;93.88;97336.19;5174470;28;20191;-58
2021/07/06 02:00:49;;;;;;;3.92;3.63;;;15.00;99.90;;;15.68;94.02;97334.22;5177752;28;20205;-62
2021/07/06 02:03:23;;;;;;;4.10;3.80;;;14.90;99.90;;;15.68;93.63;97332.56;5184281;28;20214;-62
2021/07/06 02:05:58;;;;;;;3.35;3.05;;;14.90;99.90;;;15.72;93.61;97329.22;5182490;28;20713;-59
2021/07/06 02:08:32;;;;;;;4.00;3.60;;;14.90;99.90;;;15.65;93.53;97324.72;5181044;28;20264;-62
2021/07/06 02:11:06;;;;;;;4.05;3.22;;;14.90;99.90;;;15.65;93.63;97324.72;5182798;28;20200;-61
2021/07/06 02:13:39;;;;;;;4.47;3.72;;;14.90;99.90;;;15.62;94.53;97327.16;5187875;28;20218;-61
2021/07/06 02:16:12;;;;;;;3.53;3.33;;;14.90;99.90;;;15.64;94.42;97328.09;5176999;28;20207;-58
2021/07/06 02:18:46;;;;;;;3.65;3.42;;;14.90;99.90;;;15.65;94.15;97326.38;5182335;28;20206;-56
2021/07/06 02:21:19;;;;;;;3.60;3.28;;;14.90;99.90;;;15.68;93.99;97334.22;5185772;28;20195;-61
2021/07/06 02:23:53;;;;;;;3.55;3.25;;;14.90;99.90;;;15.67;93.96;97330.75;5184924;28;20215;-60
2021/07/06 02:26:26;;;;;;;3.78;3.47;;;14.90;99.90;;;15.65;93.83;97332.44;5182743;28;20194;-58
2021/07/06 02:28:59;;;;;;;3.53;3.33;;;14.80;99.90;;;15.63;93.26;97336.66;5186340;28;20218;-61
2021/07/06 02:31:32;;;;;;;3.30;3.00;;;14.80;99.90;;;15.62;93.14;97329.75;5185687;28;20553;-59
2021/07/06 02:34:05;;;;;;;3.10;2.90;;;14.80;99.90;;;15.61;93.01;97330.59;5178242;28;20250;-61
2021/07/06 02:36:39;;;;;;;3.92;3.65;;;14.80;99.90;;;15.58;93.40;97325.34;5186757;28;20584;-58
2021/07/06 02:39:13;;;;;;;3.30;3.00;;;14.80;99.90;;;15.57;93.06;97326.19;5173545;28;20297;-62
2021/07/06 02:41:46;;;;;;;3.50;3.30;;;14.80;99.90;;;15.57;93.12;97323.59;5183020;28;20228;-61
2021/07/06 02:44:19;;;;;;;3.90;3.60;;;14.80;99.90;;;15.59;93.10;97321.06;5185758;28;20558;-61
2021/07/06 02:46:52;;;;;;;3.45;3.25;;;14.80;99.90;;;15.52;93.27;97314.88;5181943;28;20199;-61
2021/07/06 02:49:25;;;;;;;3.67;3.38;;;14.80;99.90;;;15.51;92.95;97318.28;5183981;28;20256;-61
2021/07/06 02:51:58;;;;;;;3.53;3.33;;;14.70;99.90;;;15.46;93.00;97314.69;5181182;28;20223;-60
2021/07/06 02:54:33;;;;;;;3.67;3.30;;;14.70;99.90;;;15.48;93.71;97311.34;5183638;28;20203;-60
2021/07/06 02:57:08;;;;;;;3.55;3.30;;;14.80;99.90;;;15.52;93.71;97317.44;5185752;28;20193;-61
2021/07/06 02:59:41;;;;;;;3.97;3.50;;;14.80;99.90;;;15.51;93.85;97314.00;5180921;28;20202;-61
2021/07/06 03:02:14;;;;;;;3.63;3.22;;;14.80;99.90;;;15.48;93.73;97313.00;5182045;28;20225;-58
2021/07/06 03:04:48;;;;;;;3.33;3.13;;;14.70;99.90;;;15.42;93.78;97312.84;5178367;28;20222;-61
2021/07/06 03:07:21;;;;;;;3.30;3.10;;;14.70;99.90;;;15.38;93.77;97308.44;5179179;28;20223;-61
2021/07/06 03:09:55;;;;;;;3.63;3.13;;;14.60;99.90;;;15.36;93.71;97310.09;5178305;28;20568;-60
2021/07/06 03:12:28;;;;;;;3.45;3.00;;;14.60;99.90;;;15.36;93.93;97312.66;5182953;28;20214;-61
2021/07/06 03:15:01;;;;;;;3.47;3.28;;;14.60;99.90;;;15.29;93.93;97312.50;5177275;28;20667;-62
2021/07/06 03:17:34;;;;;;;3.67;3.38;;;14.60;99.90;;;15.30;94.21;97313.34;5183583;28;20199;-61
2021/07/06 03:20:11;;;;;;;3.80;3.50;;;14.60;99.90;;;15.33;94.39;97314.31;5180557;28;20199;-60
2021/07/06 03:22:45;;;;;;;3.83;3.60;;;14.60;99.90;;;15.32;94.65;97310.00;5177184;28;20220;-58
2021/07/06 03:25:23;;;;;;;4.38;3.92;;;14.60;99.90;;;15.35;94.57;97298.91;5182037;28;20195;-58
2021/07/06 03:27:57;;;;;;;3.70;3.38;;;14.70;99.90;;;15.37;94.33;97304.13;5180029;28;20218;-61
2021/07/06 03:30:33;;;;;;;4.28;3.97;;;14.60;99.90;;;15.39;94.23;97302.44;5181370;28;20615;-61
2021/07/06 03:33:09;;;;;;;3.80;3.60;;;14.70;99.90;;;15.39;94.24;97297.31;5183541;28;20224;-62
2021/07/06 03:35:47;;;;;;;3.88;3.50;;;14.70;99.90;;;15.38;93.84;97293.00;5181907;28;20195;-61
2021/07/06 03:38:20;;;;;;;4.00;3.70;;;14.70;99.90;;;15.37;93.89;97305.00;5180614;28;20578;-61
2021/07/06 03:40:54;;;;;;;3.42;3.22;;;14.60;99.90;;;15.41;94.04;97305.97;5184990;28;20198;-62
2021/07/06 03:43:28;;;;;;;3.42;3.13;;;14.70;99.90;;;15.45;94.05;97308.69;5174546;28;20218;-61
2021/07/06 03:46:01;;;;;;;3.67;3.40;;;14.70;99.90;;;15.44;94.26;97311.19;5179422;28;20199;-61
2021/07/06 03:48:34;;;;;;;3.60;3.40;;;14.70;99.90;;;15.44;94.27;97306.91;5186422;28;20313;-62
2021/07/06 03:51:07;;;;;;;3.40;3.20;;;14.70;99.90;;;15.41;94.53;97295.66;5181551;28;20201;-61
2021/07/06 03:53:40;;;;;;;3.88;3.40;;;14.70;99.90;;;15.46;94.07;97294.09;5185880;28;20218;-62
2021/07/06 03:56:14;;;;;;;3.55;3.17;;;14.70;99.90;;;15.47;94.32;97295.81;5183037;28;20659;-60
2021/07/06 03:58:48;;;;;;;4.13;3.72;;;14.70;99.90;;;15.45;93.89;97295.81;5183599;28;20190;-60
2021/07/06 04:01:21;;;;;;;3.63;3.33;;;14.70;99.90;;;15.45;94.09;97284.59;5176613;28;20209;-59
2021/07/06 04:03:54;;;;;;;3.90;3.60;;;14.70;99.90;;;15.41;93.51;97286.22;5181754;28;20643;-60
2021/07/06 04:06:27;;;;;;;3.38;3.13;;;14.70;99.90;;;15.37;93.81;97276.69;5180500;28;20195;-61
2021/07/06 04:09:00;;;;;;;3.90;3.58;;;14.70;99.90;;;15.43;93.41;97278.56;5180233;28;20222;-61
2021/07/06 04:11:35;;;;;;;3.47;3.28;;;14.70;99.90;;;15.48;93.61;97277.84;5171115;28;20234;-61
2021/07/06 04:14:09;;;;;;;3.85;3.30;;;14.70;99.90;;;15.55;93.81;97266.88;5179014;28;20200;-59
2021/07/06 04:16:42;;;;;;;3.95;3.65;;;14.80;99.90;;;15.53;93.74;97260.81;5186436;28;20210;-62
2021/07/06 04:19:16;;;;;;;3.50;3.20;;;14.80;99.90;;;15.54;92.80;97262.56;5179936;28;20210;-61
2021/07/06 04:21:49;;;;;;;3.25;3.05;;;14.80;99.90;;;15.57;93.21;97259.22;5175184;28;20219;-63
2021/07/06 04:24:22;;;;;;;3.50;3.30;;;14.80;99.90;;;15.60;93.42;97254.13;5175799;28;20196;-61
2021/07/06 04:26:56;;;;;;;3.90;3.58;;;14.90;99.90;;;15.64;93.34;97255.94;5180450;28;20199;-62
2021/07/06 04:29:30;;;;;;;3.60;3.30;;;14.90;99.90;;;15.65;93.24;97251.66;5180279;28;20222;-62
2021/07/06 04:32:03;;;;;;;4.05;3.75;;;15.00;99.90;;;15.70;93.14;97257.84;5181260;28;20237;-61
2021/07/06 04:34:36;;;;;;;5.05;3.80;;;15.00;99.90;;;15.80;92.75;97249.56;5183712;28;20213;-60
2021/07/06 04:37:10;;;;;;;3.35;3.10;;;15.10;99.90;;;15.93;92.67;97258.47;5181789;28;20580;-63
2021/07/06 04:39:43;;;;;;;3.60;3.30;;;15.20;99.90;;;16.07;91.98;97253.69;5181915;28;20190;-63
2021/07/06 04:42:17;;;;;;;3.45;3.25;;;15.30;99.90;;;16.20;91.31;97261.78;5170507;28;20338;-62
2021/07/06 04:44:53;;;;;;;4.80;3.67;;;15.50;99.90;;;16.33;91.51;97264.66;5173561;28;20226;-61
2021/07/06 04:47:27;;;;;;;4.25;3.20;;;15.60;99.90;;;16.69;91.62;97266.38;5180069;28;20652;-59
2021/07/06 04:50:00;;;;;;;3.35;3.15;;;16.00;99.90;;;17.30;90.73;97272.94;5178179;28;20741;-59
2021/07/06 04:52:33;;;;;;;5.78;3.15;;;16.50;99.90;;;17.90;86.52;97264.69;5180650;28;20787;-66
2021/07/06 04:55:07;;;;;;;3.35;3.13;;;17.00;99.90;;;18.47;83.23;97252.75;5178239;28;20746;-66
2021/07/06 04:57:42;;;;;;;3.75;3.17;;;17.40;99.90;;;19.00;80.79;97241.47;5176517;28;20201;-67
2021/07/06 05:00:18;;;;;;;3.20;2.90;;;17.80;99.90;;;19.61;78.25;97242.25;5175019;28;20194;-66
2021/07/06 05:02:51;;;;;;;2.80;2.63;;;18.40;99.90;;;20.19;75.31;97229.03;5178382;28;20214;-66
2021/07/06 05:05:26;;;;;;;3.28;2.70;;;18.90;99.90;;;20.72;72.98;97230.34;5178878;28;20667;-66
2021/07/06 05:07:59;;;;;;;2.70;2.50;;;19.40;99.90;;;21.24;69.85;97226.34;5182157;28;20745;-66
2021/07/06 05:10:34;;;;;;;3.40;2.78;;;19.80;99.90;;;21.70;69.51;97218.75;5181792;28;20190;-66
2021/07/06 05:13:08;;;;;;;2.70;2.50;;;20.10;99.90;;;22.05;67.72;97215.34;5179279;28;20220;-66
2021/07/06 05:15:42;;;;;;;2.40;2.30;;;20.40;99.90;;;22.30;66.61;97208.44;5180796;28;20267;-66
2021/07/06 05:18:15;;;;;;;3.47;2.38;;;20.50;99.90;;;22.44;64.74;97204.09;5182038;28;20195;-66
2021/07/06 05:20:48;;;;;;;2.90;2.00;;;20.60;99.90;;;23.01;64.23;97211.88;5171903;28;20578;-67
2021/07/06 05:23:21;;;;;;;2.55;2.35;;;21.00;99.90;;;23.02;63.02;97205.78;5173239;28;20237;-67
2021/07/06 05:28:30;;;;;;;2.58;2.38;;;21.10;99.90;;;22.95;61.85;97222.31;5217741;22;20237;-67
2021/07/06 05:31:04;;;;;;;3.33;2.35;;;20.90;99.90;;;22.88;61.96;97226.63;5180163;28;20205;-67
2021/07/06 05:33:38;;;;;;;2.45;2.25;;;20.90;99.90;;;22.52;63.13;97229.25;5183325;28;20201;-67
2021/07/06 05:36:11;;;;;;;3.03;2.20;;;20.60;99.90;;;22.19;65.02;97207.56;5180931;28;20543;-67
2021/07/06 05:38:44;;;;;;;2.95;2.60;;;20.40;99.90;;;21.70;66.71;97207.47;5177197;28;20211;-67
2021/07/06 05:41:18;;;;;;;2.42;2.20;;;20.10;99.90;;;21.31;68.93;97211.63;5173228;28;20209;-68
2021/07/06 05:43:53;;;;;;;2.38;2.17;;;19.80;99.90;;;21.01;70.35;97221.03;5182023;28;20201;-67
2021/07/06 05:46:28;;;;;;;2.65;2.47;;;19.40;99.90;;;20.97;71.04;97213.19;5173883;28;20321;-67
2021/07/06 05:49:02;;;;;;;3.22;2.60;;;19.30;99.90;;;20.75;72.00;97214.81;5178003;28;20697;-68
2021/07/06 05:51:35;;;;;;;2.53;2.33;;;19.30;99.90;;;20.54;73.38;97208.59;5179863;28;20608;-67
2021/07/06 05:54:09;;;;;;;2.72;2.53;;;19.20;99.90;;;20.60;73.45;97208.66;5169951;28;20198;-66
2021/07/06 05:56:42;;;;;;;2.92;2.40;;;19.10;99.90;;;20.50;75.60;97199.00;5175081;28;20556;-67
2021/07/06 05:59:16;;;;;;;2.50;2.30;;;19.10;99.90;;;20.65;74.99;97200.88;5173640;28;20217;-68
2021/07/06 06:01:49;;;;;;;2.67;2.40;;;19.20;99.90;;;20.73;74.85;97187.94;5175804;28;20670;-67
2021/07/06 06:04:22;;;;;;;2.85;2.65;;;19.30;99.90;;;21.41;74.53;97184.84;5177724;28;20202;-62
2021/07/06 06:06:56;;;;;;;4.35;2.63;;;19.80;99.90;;;22.25;72.58;97184.13;5175146;28;20286;-62
2021/07/06 06:09:29;;;;;;;2.92;2.63;;;20.60;99.90;;;23.24;69.51;97190.06;5175142;28;20240;-64
2021/07/06 06:12:02;;;;;;;2.65;2.00;;;21.40;99.90;;;24.09;66.38;97191.34;5180300;28;20692;-63
2021/07/06 06:14:36;;;;;;;1.88;1.77;;;22.20;99.90;;;24.41;64.93;97200.66;5172639;28;20589;-63
2021/07/06 06:17:09;;;;;;;2.42;2.00;;;22.50;99.90;;;25.23;62.69;97206.88;5175519;28;20206;-63
2021/07/06 06:19:43;;;;;;;4.25;2.10;;;23.00;99.90;;;25.72;59.01;97200.16;5177826;28;20220;-63
2021/07/06 06:22:16;;;;;;;3.45;1.95;;;23.40;99.90;;;25.84;57.82;97202.69;5177508;28;20209;-62
2021/07/06 06:24:55;;;;;;;2.95;1.95;;;23.40;99.90;;;25.80;57.94;97206.16;5174911;28;20193;-63
2021/07/06 06:27:28;;;;;;;2.67;1.90;;;23.40;99.90;;;25.94;59.43;97206.00;5175153;28;20206;-63
2021/07/06 06:30:04;;;;;;;4.38;2.00;;;23.50;99.90;;;26.56;57.13;97211.19;5178547;28;20225;-62
2021/07/06 06:32:37;;;;;;;2.10;2.00;;;23.80;99.90;;;26.85;56.02;97211.53;5180020;28;20212;-64
2021/07/06 06:35:12;;;;;;;2.35;1.70;;;24.00;99.90;;;27.38;54.84;97209.66;5176566;28;20194;-63
2021/07/06 06:37:45;;;;;;;1.70;1.60;;;24.40;99.90;;;27.83;54.60;97207.00;5176191;28;20235;-63
2021/07/06 06:40:20;;;;;;;1.67;1.58;;;24.90;99.90;;;28.15;52.85;97202.75;5177341;28;20202;-63
2021/07/06 06:42:53;;;;;;;1.77;1.45;;;25.40;99.90;;;28.60;52.97;97202.56;5177198;28;20573;-62
2021/07/06 06:45:30;;;;;;;1.50;1.40;;;25.90;99.90;;;29.23;51.06;97210.59;5180405;28;20727;-63
2021/07/06 06:48:04;;;;;;;2.40;1.60;;;26.50;99.90;;;29.65;50.35;97200.66;5171104;28;20320;-63
2021/07/06 06:50:37;;;;;;;2.72;1.20;;;27.00;99.90;;;30.15;48.46;97197.34;5175457;28;20222;-63
2021/07/06 06:53:10;;;;;;;1.30;1.20;;;27.50;99.90;;;30.52;41.73;97192.63;5179077;28;20198;-63
2021/07/06 06:55:43;;;;;;;1.30;1.20;;;28.00;98.70;;;30.10;42.68;97189.56;5187877;28;20197;-63
2021/07/06 06:58:16;;;;;;;1.17;1.10;;;27.90;98.50;;;30.75;42.53;97197.13;5183150;28;20312;-62
2021/07/06 07:00:51;;;;;;;1.20;1.10;;;28.30;98.70;;;31.12;41.73;97195.00;5181133;28;20202;-64
2021/07/06 07:03:25;;;;;;;2.15;1.17;;;28.80;98.20;;;31.17;40.16;97191.28;5168106;28;20300;-64
2021/07/06 07:05:58;;;;;;;1.23;1.13;;;28.90;96.50;;;31.44;40.18;97182.44;5179526;28;20563;-64
2021/07/06 07:08:31;;;;;;;1.65;1.10;;;29.20;96.00;;;31.96;40.05;97172.53;5172263;28;20222;-64
2021/07/06 07:11:04;;;;;;;2.05;1.10;;;29.10;97.10;;;31.95;38.05;97174.31;5178753;28;20232;-64
2021/07/06 07:13:37;;;;;;;2.13;0.90;;;29.60;94.90;;;31.98;38.39;97175.97;5178527;28;20213;-62
2021/07/06 07:16:11;;;;;;;2.03;1.27;;;29.60;94.60;;;31.57;38.92;97187.19;5177155;28;20210;-64
2021/07/06 07:18:44;;;;;;;1.58;0.85;;;29.70;93.80;;;31.93;37.40;97192.00;5179163;28;20235;-62
2021/07/06 07:21:17;;;;;;;0.80;0.80;;;29.90;92.90;;;32.29;36.24;97200.25;5184128;28;20687;-62
2021/07/06 07:23:50;;;;;;;1.52;0.90;;;30.20;92.00;;;32.54;36.77;97196.66;5178393;28;20194;-63
2021/07/06 07:26:23;;;;;;;1.02;1.00;;;30.50;92.00;;;32.84;34.80;97206.84;5180400;28;20194;-62
2021/07/06 07:28:57;;;;;;;1.45;0.90;;;30.70;91.10;;;33.08;35.44;97216.44;5181566;28;20275;-62
2021/07/06 07:31:31;;;;;;;0.70;0.70;;;31.00;90.40;;;32.94;32.74;97214.34;5182208;28;20720;-62
2021/07/06 07:34:04;;;;;;;1.00;0.80;;;31.20;87.20;;;33.03;34.03;97213.13;5182131;28;20234;-62
2021/07/06 07:36:39;;;;;;;1.05;0.80;;;31.10;88.60;;;33.27;33.01;97215.63;5178886;28;20708;-62
2021/07/06 07:39:12;;;;;;;1.63;0.90;;;31.10;86.80;;;33.45;33.97;97209.47;5185103;28;20218;-62
2021/07/06 07:41:45;;;;;;;0.93;0.70;;;31.00;88.90;;;33.74;33.60;97204.66;5181855;28;20202;-62
2021/07/06 07:44:19;;;;;;;0.77;0.77;;;31.40;87.90;;;34.20;32.40;97195.44;5179856;28;20204;-62
2021/07/06 07:46:53;;;;;;;0.70;0.70;;;31.70;87.50;;;34.37;32.32;97194.59;5179037;28;20653;-62
2021/07/06 07:49:26;;;;;;;1.13;0.73;;;31.80;85.90;;;34.28;33.06;97187.97;5182331;28;20217;-62
2021/07/06 07:51:59;;;;;;;0.70;0.70;;;31.60;87.80;;;33.97;32.77;97177.94;5181245;28;20310;-62
2021/07/06 07:54:32;;;;;;;0.95;0.85;;;31.40;87.90;;;34.36;31.87;97186.72;5181818;28;20198;-63
2021/07/06 07:57:09;;;;;;;0.80;0.80;;;31.60;86.00;;;34.56;32.50;97185.75;5180177;28;20210;-63
2021/07/06 07:59:42;;;;;;;0.73;0.70;;;31.80;86.90;;;35.05;31.56;97191.19;5183840;28;20596;-63
2021/07/06 08:02:17;;;;;;;1.30;0.70;;;32.20;85.70;;;35.02;30.82;97191.34;5176214;28;20194;-63
2021/07/06 08:04:50;;;;;;;0.93;0.65;;;32.10;84.20;;;35.34;30.74;97171.97;5180929;28;20201;-64
2021/07/06 08:07:26;;;;;;;1.13;0.60;;;32.20;84.20;;;35.33;30.77;97172.88;5182891;28;20190;-64
2021/07/06 08:09:59;;;;;;;1.08;0.77;;;32.50;83.30;;;35.71;30.39;97174.44;5179074;28;20760;-63
2021/07/06 08:12:32;;;;;;;0.93;0.70;;;32.50;83.20;;;35.92;30.52;97178.56;5177679;28;20210;-63
2021/07/06 08:15:07;;;;;;;1.70;0.80;;;32.50;84.00;;;36.15;28.64;97181.78;5182164;28;20213;-62
2021/07/06 08:17:42;;;;;;;0.85;0.65;;;33.00;81.20;;;35.79;29.40;97183.69;5175561;28;20209;-63
2021/07/06 08:20:15;;;;;;;0.70;0.70;;;33.00;80.90;;;35.99;29.42;97168.44;5173190;28;20204;-63
2021/07/06 08:22:48;;;;;;;0.60;0.60;;;33.10;80.40;;;35.73;30.15;97176.06;5173787;28;20206;-63
2021/07/06 08:25:23;;;;;;;1.77;0.80;;;33.00;80.80;;;35.42;30.23;97161.75;5168729;28;20849;-62
2021/07/06 08:27:56;;;;;;;1.10;0.80;;;32.70;82.10;;;34.92;31.10;97154.66;5178741;28;20732;-63
2021/07/06 08:30:29;;;;;;;1.02;0.90;;;32.60;81.30;;;34.16;31.57;97169.97;5180883;28;20232;-62
2021/07/06 08:33:04;;;;;;;0.77;0.75;;;32.40;80.60;;;34.18;30.94;97168.09;5176764;28;20203;-62
2021/07/06 08:35:37;;;;;;;1.80;0.80;;;32.60;78.30;;;33.73;32.44;97172.00;5179049;28;20680;-62
2021/07/06 08:38:10;;;;;;;0.82;0.82;;;32.30;80.40;;;33.66;33.77;97164.41;5180989;28;20210;-63
2021/07/06 08:40:44;;;;;;;1.05;0.80;;;32.20;81.90;;;33.77;32.72;97160.31;5180802;28;20496;-62
2021/07/06 08:43:18;;;;;;;1.98;1.00;;;32.30;81.50;;;33.89;33.40;97150.06;5177680;28;20207;-62
2021/07/06 08:45:52;;;;;;;0.85;0.85;;;32.60;81.60;;;33.80;32.80;97157.53;5180117;28;20662;-62
2021/07/06 08:48:34;;;;;;;0.90;0.90;;;32.60;80.90;;;33.93;32.68;97176.34;5178837;28;20218;-63
2021/07/06 08:51:08;;;;;;;1.35;0.80;;;32.70;81.40;;;34.04;33.13;97184.69;5177775;28;20572;-63
2021/07/06 08:53:41;;;;;;;1.60;0.90;;;32.80;81.50;;;33.98;33.12;97202.66;5178165;28;20212;-62
2021/07/06 08:56:14;;;;;;;1.33;0.90;;;32.70;82.10;;;33.77;33.07;97204.56;5180287;28;20195;-63
2021/07/06 08:58:47;;;;;;;0.90;0.90;;;32.60;81.00;;;33.90;33.68;97205.66;5178365;28;20218;-62
2021/07/06 09:01:27;;;;;;;1.50;0.80;;;32.60;82.90;;;33.80;32.90;97215.00;5176998;28;20231;-62
2021/07/06 09:04:04;;;;;;;1.02;0.93;;;32.50;80.80;;;33.61;33.78;97234.41;5176548;28;20228;-62
2021/07/06 09:06:55;;;;;;;1.02;0.90;;;32.10;83.10;;;33.12;34.67;97244.50;5180222;28;20208;-62
2021/07/06 09:09:29;;;;;;;1.08;0.98;;;31.40;84.30;;;32.70;36.55;97248.00;5172699;28;20226;-62
2021/07/06 09:12:02;;;;;;;0.85;0.85;;;30.90;87.10;;;32.34;36.75;97250.38;5177808;28;20232;-63
2021/07/06 09:14:40;;;;;;;1.10;1.00;;;30.50;89.20;;;32.37;37.53;97260.81;5176128;28;20220;-63
2021/07/06 09:17:15;;;;;;;1.17;1.08;;;30.60;88.80;;;32.63;36.42;97267.72;5178416;28;20205;-62
2021/07/06 09:19:52;;;;;;;1.33;0.90;;;31.10;87.30;;;32.77;36.02;97272.47;5181332;28;21210;-64
2021/07/06 09:22:30;;;;;;;1.33;1.10;;;31.40;85.10;;;32.75;36.81;97280.44;5175154;28;20288;-64
2021/07/06 09:25:07;;;;;;;1.00;1.00;;;31.30;86.60;;;32.70;37.23;97284.22;5177026;28;20653;-63
2021/07/06 09:27:42;;;;;;;2.08;1.15;;;31.40;85.80;;;32.73;37.16;97279.66;5175581;28;20191;-63
2021/07/06 09:30:19;;;;;;;1.27;1.20;;;31.30;87.10;;;32.87;37.44;97294.13;5177970;28;20301;-69
2021/07/06 09:32:55;;;;;;;1.20;1.10;;;31.50;87.60;;;32.97;37.07;97298.13;5178634;28;20204;-62
2021/07/06 09:35:30;;;;;;;1.33;1.20;;;31.60;88.10;;;32.98;36.83;97292.72;5178726;28;20201;-63
2021/07/06 09:38:05;;;;;;;2.25;1.05;;;31.70;86.60;;;33.25;36.61;97302.25;5178353;28;20776;-62
2021/07/06 09:40:42;;;;;;;0.93;0.93;;;31.80;85.90;;;33.23;36.56;97304.13;5178095;28;20219;-62
2021/07/06 09:43:22;;;;;;;1.00;1.00;;;32.00;86.30;;;33.16;36.98;97314.09;5176923;28;20651;-62
2021/07/06 09:46:08;;;;;;;1.05;0.95;;;31.70;88.00;;;33.07;37.74;97320.66;5178109;28;20665;-62
2021/07/06 09:48:44;;;;;;;1.40;1.00;;;31.40;89.60;;;32.88;37.68;97314.34;5176428;28;20232;-61
2021/07/06 09:51:20;;;;;;;1.20;1.10;;;31.10;89.90;;;32.90;38.32;97323.13;5175860;28;20768;-63
2021/07/06 09:53:55;;;;;;;1.27;1.17;;;31.20;90.30;;;32.97;37.28;97329.91;5179615;28;20292;-63
2021/07/06 09:56:28;;;;;;;1.25;0.90;;;31.10;88.10;;;32.71;38.25;97331.81;5174917;28;20197;-63
2021/07/06 09:59:05;;;;;;;1.38;1.15;;;31.00;89.80;;;32.81;38.40;97347.31;5174950;28;20230;-62
2021/07/06 10:01:53;;;;;;;3.10;1.33;;;30.70;90.20;;;32.18;38.92;97398.22;5170370;28;20197;-62
2021/07/06 10:04:28;;;;;;;2.25;1.33;;;30.30;90.90;;;31.12;41.67;97419.47;5181054;28;20213;-62
2021/07/06 10:07:03;;;;;;;2.22;1.55;;;29.70;91.80;;;30.73;42.53;97446.16;5176686;28;20220;-63
2021/07/06 10:09:37;;;;;;;2.00;1.80;;;28.90;93.20;;;29.91;44.27;97463.41;5174908;28;20217;-62
2021/07/06 10:12:11;;;;;;;4.32;1.92;;;28.10;94.30;;;28.79;47.73;97462.56;5176638;28;20259;-62
2021/07/06 10:14:45;;;;;;;1.77;1.52;;;27.30;96.00;;;28.18;48.33;97470.78;5176378;28;20308;-62
2021/07/06 10:17:18;;;;;;;3.03;1.50;;;26.60;96.60;;;28.11;48.72;97458.69;5176843;28;20594;-62
2021/07/06 10:19:51;;;;;;;1.67;1.58;;;26.60;97.30;;;27.75;49.92;97444.44;5168119;28;20240;-62
2021/07/06 10:22:26;;;;;;;1.60;1.40;;;26.50;97.30;;;27.72;50.50;97447.97;5179075;28;20487;-62
2021/07/06 10:25:03;;;;;;;2.95;1.55;;;26.50;97.70;;;27.96;51.00;97438.81;5174644;28;20216;-63
2021/07/06 10:27:40;;;;;;;1.55;1.45;;;26.70;98.10;;;27.95;50.29;97436.22;5177723;28;20198;-63
2021/07/06 10:30:17;;;;;;;3.22;1.60;;;26.70;97.60;;;27.90;50.70;97433.69;5176182;28;20206;-63
2021/07/06 10:32:53;;;;;;;1.77;1.40;;;26.70;97.90;;;28.13;50.60;97421.84;5184625;28;20224;-60
2021/07/06 10:36:00;;;;;;;2.25;1.77;;;26.90;98.60;;;28.45;50.71;97416.84;5178588;28;20212;-63
2021/07/06 10:38:58;;;;;;;1.70;1.60;;;27.30;98.70;;;28.66;48.53;97417.25;5136925;28;20222;-62
2021/07/06 10:41:55;;;;;;;1.70;1.42;;;27.50;97.10;;;28.57;49.11;97415.69;5139691;28;20203;-62
2021/07/06 10:44:33;;;;;;;1.33;1.23;;;27.40;97.30;;;28.74;48.62;97423.22;5172042;28;20212;-63
2021/07/06 10:47:37;;;;;;;1.73;1.63;;;27.30;97.80;;;28.65;49.29;97413.78;5182511;28;20204;-63
2021/07/06 10:50:47;;;;;;;2.10;1.60;;;27.40;97.60;;;28.56;49.72;97403.47;5176128;28;20725;-64
2021/07/06 10:53:23;;;;;;;1.67;1.58;;;27.40;97.40;;;28.74;49.91;97395.13;5182040;28;20436;-63
2021/07/06 10:56:11;;;;;;;4.03;1.65;;;27.60;98.10;;;28.61;51.20;97409.47;5179019;28;20196;-64